sensor_id;sensor_type;location;lat;lon;timestamp;P1;durP1;ratioP1;P2;durP2;ratioP2
33162;SDS011;29282;45.656;11.302;2022-10-16T00:01:59;7.43;;;6.55;;
33162;SDS011;29282;45.656;11.302;2022-10-16T00:04:24;6.93;;;5.93;;
33162;SDS011;29282;45.656;11.302;2022-10-16T00:06:50;8.30;;;6.65;;
33162;SDS011;29282;45.656;11.302;2022-10-16T00:09:15;6.82;;;6.13;;
33162;SDS011;29282;45.656;11.302;2022-10-16T00:11:41;6.85;;;6.07;;
33162;SDS011;29282;45.656;11.302;2022-10-16T00:14:08;7.03;;;6.32;;
33162;SDS011;29282;45.656;11.302;2022-10-16T00:16:36;7.70;;;6.50;;
33162;SDS011;29282;45.656;11.302;2022-10-16T00:19:01;7.70;;;6.68;;
33162;SDS011;29282;45.656;11.302;2022-10-16T00:21:28;7.20;;;6.50;;
33162;SDS011;29282;45.656;11.302;2022-10-16T00:24:01;8.90;;;6.10;;
33162;SDS011;29282;45.656;11.302;2022-10-16T00:26:30;6.97;;;6.28;;
33162;SDS011;29282;45.656;11.302;2022-10-16T00:28:57;7.20;;;6.13;;
33162;SDS011;29282;45.656;11.302;2022-10-16T00:31:23;7.70;;;6.90;;
33162;SDS011;29282;45.656;11.302;2022-10-16T00:33:49;7.20;;;6.50;;
33162;SDS011;29282;45.656;11.302;2022-10-16T00:36:16;7.38;;;6.47;;
33162;SDS011;29282;45.656;11.302;2022-10-16T00:38:43;6.45;;;5.85;;
33162;SDS011;29282;45.656;11.302;2022-10-16T00:41:11;7.40;;;6.65;;
33162;SDS011;29282;45.656;11.302;2022-10-16T00:46:13;6.95;;;6.25;;
33162;SDS011;29282;45.656;11.302;2022-10-16T00:48:40;7.20;;;6.45;;
33162;SDS011;29282;45.656;11.302;2022-10-16T00:51:06;8.63;;;6.70;;
33162;SDS011;29282;45.656;11.302;2022-10-16T00:53:33;9.65;;;6.63;;
33162;SDS011;29282;45.656;11.302;2022-10-16T00:56:00;6.97;;;6.28;;
33162;SDS011;29282;45.656;11.302;2022-10-16T00:58:26;8.02;;;6.72;;
33162;SDS011;29282;45.656;11.302;2022-10-16T01:00:55;7.47;;;6.65;;
33162;SDS011;29282;45.656;11.302;2022-10-16T01:03:28;6.93;;;6.22;;
33162;SDS011;29282;45.656;11.302;2022-10-16T01:06:01;7.05;;;6.35;;
33162;SDS011;29282;45.656;11.302;2022-10-16T01:09:50;7.63;;;6.75;;
33162;SDS011;29282;45.656;11.302;2022-10-16T01:14:19;7.93;;;6.80;;
33162;SDS011;29282;45.656;11.302;2022-10-16T01:24:55;7.35;;;6.55;;
33162;SDS011;29282;45.656;11.302;2022-10-16T01:27:26;7.47;;;6.78;;
33162;SDS011;29282;45.656;11.302;2022-10-16T01:30:07;8.13;;;7.32;;
33162;SDS011;29282;45.656;11.302;2022-10-16T01:32:40;8.23;;;7.30;;
33162;SDS011;29282;45.656;11.302;2022-10-16T01:40:23;7.90;;;7.10;;
33162;SDS011;29282;45.656;11.302;2022-10-16T01:43:04;7.47;;;6.57;;
33162;SDS011;29282;45.656;11.302;2022-10-16T01:45:33;8.15;;;7.18;;
33162;SDS011;29282;45.656;11.302;2022-10-16T01:48:00;7.85;;;7.05;;
33162;SDS011;29282;45.656;11.302;2022-10-16T01:50:30;7.00;;;6.30;;
33162;SDS011;29282;45.656;11.302;2022-10-16T01:52:59;7.38;;;6.50;;
33162;SDS011;29282;45.656;11.302;2022-10-16T01:55:32;8.27;;;7.38;;
33162;SDS011;29282;45.656;11.302;2022-10-16T01:58:07;8.65;;;7.40;;
33162;SDS011;29282;45.656;11.302;2022-10-16T02:00:36;8.77;;;7.47;;
33162;SDS011;29282;45.656;11.302;2022-10-16T02:03:05;8.02;;;7.18;;
33162;SDS011;29282;45.656;11.302;2022-10-16T02:06:06;8.15;;;7.03;;
33162;SDS011;29282;45.656;11.302;2022-10-16T02:08:24;10.90;;;7.25;;
33162;SDS011;29282;45.656;11.302;2022-10-16T02:10:54;8.25;;;7.43;;
33162;SDS011;29282;45.656;11.302;2022-10-16T02:13:37;8.05;;;7.25;;
33162;SDS011;29282;45.656;11.302;2022-10-16T02:16:10;8.40;;;7.05;;
33162;SDS011;29282;45.656;11.302;2022-10-16T02:18:36;8.27;;;7.30;;
33162;SDS011;29282;45.656;11.302;2022-10-16T02:21:03;7.82;;;7.03;;
33162;SDS011;29282;45.656;11.302;2022-10-16T02:23:53;8.23;;;7.10;;
33162;SDS011;29282;45.656;11.302;2022-10-16T02:26:26;7.68;;;6.88;;
33162;SDS011;29282;45.656;11.302;2022-10-16T02:28:58;8.10;;;7.30;;
33162;SDS011;29282;45.656;11.302;2022-10-16T02:31:31;8.90;;;8.00;;
33162;SDS011;29282;45.656;11.302;2022-10-16T02:33:59;7.78;;;7.03;;
33162;SDS011;29282;45.656;11.302;2022-10-16T02:36:27;8.10;;;7.30;;
33162;SDS011;29282;45.656;11.302;2022-10-16T02:38:54;8.75;;;7.88;;
33162;SDS011;29282;45.656;11.302;2022-10-16T02:41:21;8.40;;;7.50;;
33162;SDS011;29282;45.656;11.302;2022-10-16T02:43:51;8.57;;;7.78;;
33162;SDS011;29282;45.656;11.302;2022-10-16T02:46:16;9.40;;;7.80;;
33162;SDS011;29282;45.656;11.302;2022-10-16T02:48:43;8.60;;;7.68;;
33162;SDS011;29282;45.656;11.302;2022-10-16T02:51:11;7.82;;;6.97;;
33162;SDS011;29282;45.656;11.302;2022-10-16T02:53:37;8.70;;;7.80;;
33162;SDS011;29282;45.656;11.302;2022-10-16T02:56:02;9.15;;;8.25;;
33162;SDS011;29282;45.656;11.302;2022-10-16T02:58:28;8.55;;;7.65;;
33162;SDS011;29282;45.656;11.302;2022-10-16T03:00:54;8.50;;;7.47;;
33162;SDS011;29282;45.656;11.302;2022-10-16T03:03:20;8.30;;;7.50;;
33162;SDS011;29282;45.656;11.302;2022-10-16T03:05:46;8.20;;;7.40;;
33162;SDS011;29282;45.656;11.302;2022-10-16T03:08:12;8.98;;;8.07;;
33162;SDS011;29282;45.656;11.302;2022-10-16T03:10:38;9.70;;;8.35;;
33162;SDS011;29282;45.656;11.302;2022-10-16T03:13:03;8.23;;;7.13;;
33162;SDS011;29282;45.656;11.302;2022-10-16T03:15:28;8.48;;;7.68;;
33162;SDS011;29282;45.656;11.302;2022-10-16T03:17:55;9.07;;;8.07;;
33162;SDS011;29282;45.656;11.302;2022-10-16T03:20:22;10.10;;;7.80;;
33162;SDS011;29282;45.656;11.302;2022-10-16T03:22:51;8.25;;;7.45;;
33162;SDS011;29282;45.656;11.302;2022-10-16T03:25:16;9.07;;;8.13;;
33162;SDS011;29282;45.656;11.302;2022-10-16T03:27:42;9.10;;;7.65;;
33162;SDS011;29282;45.656;11.302;2022-10-16T03:30:08;8.75;;;7.70;;
33162;SDS011;29282;45.656;11.302;2022-10-16T03:32:34;9.02;;;8.13;;
33162;SDS011;29282;45.656;11.302;2022-10-16T03:34:59;8.27;;;7.43;;
33162;SDS011;29282;45.656;11.302;2022-10-16T03:37:25;8.70;;;7.80;;
33162;SDS011;29282;45.656;11.302;2022-10-16T03:39:51;8.55;;;7.70;;
33162;SDS011;29282;45.656;11.302;2022-10-16T03:42:17;9.02;;;8.13;;
33162;SDS011;29282;45.656;11.302;2022-10-16T03:44:42;9.73;;;8.57;;
33162;SDS011;29282;45.656;11.302;2022-10-16T03:47:08;8.52;;;7.57;;
33162;SDS011;29282;45.656;11.302;2022-10-16T03:49:33;8.32;;;7.45;;
33162;SDS011;29282;45.656;11.302;2022-10-16T03:51:58;10.32;;;9.07;;
33162;SDS011;29282;45.656;11.302;2022-10-16T03:54:24;8.98;;;7.57;;
33162;SDS011;29282;45.656;11.302;2022-10-16T03:56:52;8.75;;;7.85;;
33162;SDS011;29282;45.656;11.302;2022-10-16T03:59:18;9.18;;;8.13;;
33162;SDS011;29282;45.656;11.302;2022-10-16T04:01:46;8.45;;;7.55;;
33162;SDS011;29282;45.656;11.302;2022-10-16T04:04:12;8.75;;;7.85;;
33162;SDS011;29282;45.656;11.302;2022-10-16T04:06:37;8.77;;;7.88;;
33162;SDS011;29282;45.656;11.302;2022-10-16T04:09:03;9.23;;;8.23;;
33162;SDS011;29282;45.656;11.302;2022-10-16T04:11:28;8.88;;;7.97;;
33162;SDS011;29282;45.656;11.302;2022-10-16T04:13:54;9.40;;;8.30;;
33162;SDS011;29282;45.656;11.302;2022-10-16T04:16:19;9.07;;;8.10;;
33162;SDS011;29282;45.656;11.302;2022-10-16T04:18:45;9.23;;;8.32;;
33162;SDS011;29282;45.656;11.302;2022-10-16T04:21:10;8.70;;;7.80;;
33162;SDS011;29282;45.656;11.302;2022-10-16T04:23:36;9.77;;;7.82;;
33162;SDS011;29282;45.656;11.302;2022-10-16T04:26:02;9.32;;;8.43;;
33162;SDS011;29282;45.656;11.302;2022-10-16T04:28:27;9.20;;;8.30;;
33162;SDS011;29282;45.656;11.302;2022-10-16T04:30:53;10.32;;;8.40;;
33162;SDS011;29282;45.656;11.302;2022-10-16T04:33:19;10.65;;;9.55;;
33162;SDS011;29282;45.656;11.302;2022-10-16T04:35:44;9.00;;;8.10;;
33162;SDS011;29282;45.656;11.302;2022-10-16T04:38:10;9.52;;;8.50;;
33162;SDS011;29282;45.656;11.302;2022-10-16T04:40:35;10.57;;;8.43;;
33162;SDS011;29282;45.656;11.302;2022-10-16T04:43:04;10.30;;;8.95;;
33162;SDS011;29282;45.656;11.302;2022-10-16T04:45:30;9.85;;;8.85;;
33162;SDS011;29282;45.656;11.302;2022-10-16T04:47:57;9.35;;;8.35;;
33162;SDS011;29282;45.656;11.302;2022-10-16T04:50:23;9.38;;;8.30;;
33162;SDS011;29282;45.656;11.302;2022-10-16T04:52:49;8.93;;;8.02;;
33162;SDS011;29282;45.656;11.302;2022-10-16T04:55:14;10.65;;;8.77;;
33162;SDS011;29282;45.656;11.302;2022-10-16T04:57:40;10.25;;;9.25;;
33162;SDS011;29282;45.656;11.302;2022-10-16T05:00:06;10.65;;;8.88;;
33162;SDS011;29282;45.656;11.302;2022-10-16T05:02:33;9.35;;;8.38;;
33162;SDS011;29282;45.656;11.302;2022-10-16T05:04:58;9.73;;;8.48;;
33162;SDS011;29282;45.656;11.302;2022-10-16T05:07:24;9.35;;;8.43;;
33162;SDS011;29282;45.656;11.302;2022-10-16T05:09:49;10.00;;;9.00;;
33162;SDS011;29282;45.656;11.302;2022-10-16T05:12:15;9.52;;;8.52;;
33162;SDS011;29282;45.656;11.302;2022-10-16T05:14:40;9.00;;;8.10;;
33162;SDS011;29282;45.656;11.302;2022-10-16T05:17:06;9.02;;;8.13;;
33162;SDS011;29282;45.656;11.302;2022-10-16T05:19:31;9.60;;;8.60;;
33162;SDS011;29282;45.656;11.302;2022-10-16T05:21:57;9.82;;;8.82;;
33162;SDS011;29282;45.656;11.302;2022-10-16T05:24:22;9.23;;;8.32;;
33162;SDS011;29282;45.656;11.302;2022-10-16T05:26:48;9.20;;;8.18;;
33162;SDS011;29282;45.656;11.302;2022-10-16T05:29:15;10.15;;;9.02;;
33162;SDS011;29282;45.656;11.302;2022-10-16T05:31:40;10.38;;;9.27;;
33162;SDS011;29282;45.656;11.302;2022-10-16T05:34:06;9.88;;;8.88;;
33162;SDS011;29282;45.656;11.302;2022-10-16T05:36:31;10.57;;;9.48;;
33162;SDS011;29282;45.656;11.302;2022-10-16T05:38:57;9.80;;;8.80;;
33162;SDS011;29282;45.656;11.302;2022-10-16T05:41:22;10.23;;;9.05;;
33162;SDS011;29282;45.656;11.302;2022-10-16T05:43:50;9.45;;;8.48;;
33162;SDS011;29282;45.656;11.302;2022-10-16T05:46:16;10.30;;;9.20;;
33162;SDS011;29282;45.656;11.302;2022-10-16T05:48:42;10.05;;;8.88;;
33162;SDS011;29282;45.656;11.302;2022-10-16T05:51:08;9.95;;;8.95;;
33162;SDS011;29282;45.656;11.302;2022-10-16T05:53:36;9.95;;;8.95;;
33162;SDS011;29282;45.656;11.302;2022-10-16T05:56:03;9.77;;;8.77;;
33162;SDS011;29282;45.656;11.302;2022-10-16T05:58:33;9.80;;;8.80;;
33162;SDS011;29282;45.656;11.302;2022-10-16T06:03:49;10.23;;;8.60;;
33162;SDS011;29282;45.656;11.302;2022-10-16T06:06:22;10.00;;;8.90;;
33162;SDS011;29282;45.656;11.302;2022-10-16T06:08:50;10.25;;;9.15;;
33162;SDS011;29282;45.656;11.302;2022-10-16T06:11:17;10.10;;;8.85;;
33162;SDS011;29282;45.656;11.302;2022-10-16T06:13:44;11.07;;;9.93;;
33162;SDS011;29282;45.656;11.302;2022-10-16T06:16:11;9.73;;;8.73;;
33162;SDS011;29282;45.656;11.302;2022-10-16T06:18:37;9.98;;;8.90;;
33162;SDS011;29282;45.656;11.302;2022-10-16T06:21:10;12.50;;;9.73;;
33162;SDS011;29282;45.656;11.302;2022-10-16T06:23:39;9.27;;;8.18;;
33162;SDS011;29282;45.656;11.302;2022-10-16T06:26:11;10.00;;;8.85;;
33162;SDS011;29282;45.656;11.302;2022-10-16T06:28:38;10.27;;;9.23;;
33162;SDS011;29282;45.656;11.302;2022-10-16T06:31:04;10.10;;;9.00;;
33162;SDS011;29282;45.656;11.302;2022-10-16T06:33:31;10.68;;;9.57;;
33162;SDS011;29282;45.656;11.302;2022-10-16T06:36:01;9.93;;;8.93;;
33162;SDS011;29282;45.656;11.302;2022-10-16T06:38:28;9.60;;;8.70;;
33162;SDS011;29282;45.656;11.302;2022-10-16T06:40:54;10.00;;;9.00;;
33162;SDS011;29282;45.656;11.302;2022-10-16T06:43:20;11.02;;;9.93;;
33162;SDS011;29282;45.656;11.302;2022-10-16T06:45:52;10.75;;;8.98;;
33162;SDS011;29282;45.656;11.302;2022-10-16T06:48:23;10.15;;;9.05;;
33162;SDS011;29282;45.656;11.302;2022-10-16T06:51:23;11.43;;;9.52;;
33162;SDS011;29282;45.656;11.302;2022-10-16T06:53:43;10.05;;;8.75;;
33162;SDS011;29282;45.656;11.302;2022-10-16T06:56:17;11.07;;;9.87;;
33162;SDS011;29282;45.656;11.302;2022-10-16T06:58:48;10.18;;;9.15;;
33162;SDS011;29282;45.656;11.302;2022-10-16T07:01:14;9.75;;;8.75;;
33162;SDS011;29282;45.656;11.302;2022-10-16T07:03:42;10.75;;;9.15;;
33162;SDS011;29282;45.656;11.302;2022-10-16T07:06:10;10.25;;;9.15;;
33162;SDS011;29282;45.656;11.302;2022-10-16T07:08:41;10.57;;;9.15;;
33162;SDS011;29282;45.656;11.302;2022-10-16T07:11:08;11.25;;;10.05;;
33162;SDS011;29282;45.656;11.302;2022-10-16T07:13:36;10.65;;;9.55;;
33162;SDS011;29282;45.656;11.302;2022-10-16T07:16:12;10.00;;;8.98;;
33162;SDS011;29282;45.656;11.302;2022-10-16T07:18:40;10.63;;;9.52;;
33162;SDS011;29282;45.656;11.302;2022-10-16T07:21:08;11.02;;;9.77;;
33162;SDS011;29282;45.656;11.302;2022-10-16T07:23:38;12.23;;;8.98;;
33162;SDS011;29282;45.656;11.302;2022-10-16T07:26:05;9.55;;;8.55;;
33162;SDS011;29282;45.656;11.302;2022-10-16T07:28:31;10.02;;;9.02;;
33162;SDS011;29282;45.656;11.302;2022-10-16T07:31:01;9.93;;;8.63;;
33162;SDS011;29282;45.656;11.302;2022-10-16T07:33:28;11.18;;;9.75;;
33162;SDS011;29282;45.656;11.302;2022-10-16T07:35:54;10.77;;;9.25;;
33162;SDS011;29282;45.656;11.302;2022-10-16T07:38:20;10.75;;;9.65;;
33162;SDS011;29282;45.656;11.302;2022-10-16T07:40:46;9.82;;;8.75;;
33162;SDS011;29282;45.656;11.302;2022-10-16T07:43:12;10.65;;;9.63;;
33162;SDS011;29282;45.656;11.302;2022-10-16T07:45:48;10.40;;;9.32;;
33162;SDS011;29282;45.656;11.302;2022-10-16T07:48:15;9.63;;;8.63;;
33162;SDS011;29282;45.656;11.302;2022-10-16T07:50:42;11.43;;;9.45;;
33162;SDS011;29282;45.656;11.302;2022-10-16T07:53:09;10.52;;;9.15;;
33162;SDS011;29282;45.656;11.302;2022-10-16T07:55:35;10.23;;;8.95;;
33162;SDS011;29282;45.656;11.302;2022-10-16T07:58:00;10.15;;;8.88;;
33162;SDS011;29282;45.656;11.302;2022-10-16T08:00:26;10.20;;;9.10;;
33162;SDS011;29282;45.656;11.302;2022-10-16T08:02:51;10.18;;;9.13;;
33162;SDS011;29282;45.656;11.302;2022-10-16T08:05:17;10.68;;;9.65;;
33162;SDS011;29282;45.656;11.302;2022-10-16T08:07:42;9.55;;;8.55;;
33162;SDS011;29282;45.656;11.302;2022-10-16T08:10:17;10.85;;;9.68;;
33162;SDS011;29282;45.656;11.302;2022-10-16T08:12:44;9.65;;;8.65;;
33162;SDS011;29282;45.656;11.302;2022-10-16T08:15:09;10.70;;;9.60;;
33162;SDS011;29282;45.656;11.302;2022-10-16T08:17:35;11.10;;;9.90;;
33162;SDS011;29282;45.656;11.302;2022-10-16T08:20:01;9.95;;;9.05;;
33162;SDS011;29282;45.656;11.302;2022-10-16T08:22:27;10.63;;;9.52;;
33162;SDS011;29282;45.656;11.302;2022-10-16T08:24:52;10.25;;;9.18;;
33162;SDS011;29282;45.656;11.302;2022-10-16T08:27:18;10.02;;;9.02;;
33162;SDS011;29282;45.656;11.302;2022-10-16T08:29:43;9.60;;;8.65;;
33162;SDS011;29282;45.656;11.302;2022-10-16T08:32:09;10.43;;;9.32;;
33162;SDS011;29282;45.656;11.302;2022-10-16T08:34:34;10.05;;;9.05;;
33162;SDS011;29282;45.656;11.302;2022-10-16T08:37:00;10.73;;;9.20;;
33162;SDS011;29282;45.656;11.302;2022-10-16T08:39:25;10.30;;;9.30;;
33162;SDS011;29282;45.656;11.302;2022-10-16T08:50:08;10.30;;;8.98;;
33162;SDS011;29282;45.656;11.302;2022-10-16T08:52:38;10.75;;;9.30;;
33162;SDS011;29282;45.656;11.302;2022-10-16T08:55:06;9.93;;;8.93;;
33162;SDS011;29282;45.656;11.302;2022-10-16T08:57:46;10.70;;;9.57;;
33162;SDS011;29282;45.656;11.302;2022-10-16T09:00:12;10.65;;;9.48;;
33162;SDS011;29282;45.656;11.302;2022-10-16T09:02:39;10.20;;;9.20;;
33162;SDS011;29282;45.656;11.302;2022-10-16T09:05:16;10.85;;;9.75;;
33162;SDS011;29282;45.656;11.302;2022-10-16T09:16:22;10.20;;;9.13;;
33162;SDS011;29282;45.656;11.302;2022-10-16T09:21:31;10.07;;;9.07;;
33162;SDS011;29282;45.656;11.302;2022-10-16T09:24:07;11.30;;;9.68;;
33162;SDS011;29282;45.656;11.302;2022-10-16T09:26:37;10.88;;;9.52;;
33162;SDS011;29282;45.656;11.302;2022-10-16T09:29:03;10.75;;;9.63;;
33162;SDS011;29282;45.656;11.302;2022-10-16T09:31:28;10.52;;;9.43;;
33162;SDS011;29282;45.656;11.302;2022-10-16T09:33:55;10.45;;;9.43;;
33162;SDS011;29282;45.656;11.302;2022-10-16T09:36:25;10.55;;;9.45;;
33162;SDS011;29282;45.656;11.302;2022-10-16T09:39:05;10.20;;;8.98;;
33162;SDS011;29282;45.656;11.302;2022-10-16T09:41:35;10.35;;;9.35;;
33162;SDS011;29282;45.656;11.302;2022-10-16T09:44:03;9.63;;;8.73;;
33162;SDS011;29282;45.656;11.302;2022-10-16T09:46:41;10.27;;;9.25;;
33162;SDS011;29282;45.656;11.302;2022-10-16T09:49:20;11.70;;;9.45;;
33162;SDS011;29282;45.656;11.302;2022-10-16T09:51:48;10.40;;;9.32;;
33162;SDS011;29282;45.656;11.302;2022-10-16T09:54:18;10.48;;;9.32;;
33162;SDS011;29282;45.656;11.302;2022-10-16T09:56:46;11.10;;;9.95;;
33162;SDS011;29282;45.656;11.302;2022-10-16T09:59:20;10.68;;;9.52;;
33162;SDS011;29282;45.656;11.302;2022-10-16T10:01:52;10.90;;;9.80;;
33162;SDS011;29282;45.656;11.302;2022-10-16T10:04:19;10.85;;;9.70;;
33162;SDS011;29282;45.656;11.302;2022-10-16T10:06:53;10.05;;;9.05;;
33162;SDS011;29282;45.656;11.302;2022-10-16T10:09:37;10.63;;;9.52;;
33162;SDS011;29282;45.656;11.302;2022-10-16T10:12:14;10.45;;;9.45;;
33162;SDS011;29282;45.656;11.302;2022-10-16T10:14:47;10.80;;;9.75;;
33162;SDS011;29282;45.656;11.302;2022-10-16T10:17:19;11.07;;;9.73;;
33162;SDS011;29282;45.656;11.302;2022-10-16T10:19:56;10.80;;;9.70;;
33162;SDS011;29282;45.656;11.302;2022-10-16T10:22:47;11.02;;;9.90;;
33162;SDS011;29282;45.656;11.302;2022-10-16T10:35:29;10.45;;;9.40;;
33162;SDS011;29282;45.656;11.302;2022-10-16T10:38:01;10.15;;;9.10;;
33162;SDS011;29282;45.656;11.302;2022-10-16T10:46:00;11.13;;;10.02;;
33162;SDS011;29282;45.656;11.302;2022-10-16T11:02:37;10.88;;;9.77;;
33162;SDS011;29282;45.656;11.302;2022-10-16T11:07:48;11.27;;;10.18;;
33162;SDS011;29282;45.656;11.302;2022-10-16T11:10:21;10.90;;;9.80;;
33162;SDS011;29282;45.656;11.302;2022-10-16T11:12:52;10.68;;;9.48;;
33162;SDS011;29282;45.656;11.302;2022-10-16T11:20:54;10.60;;;9.52;;
33162;SDS011;29282;45.656;11.302;2022-10-16T11:23:26;11.07;;;9.90;;
33162;SDS011;29282;45.656;11.302;2022-10-16T11:25:55;11.02;;;9.82;;
33162;SDS011;29282;45.656;11.302;2022-10-16T11:28:35;10.95;;;9.73;;
33162;SDS011;29282;45.656;11.302;2022-10-16T11:49:40;10.98;;;9.85;;
33162;SDS011;29282;45.656;11.302;2022-10-16T11:52:19;11.80;;;10.60;;
33162;SDS011;29282;45.656;11.302;2022-10-16T11:55:14;10.52;;;9.52;;
33162;SDS011;29282;45.656;11.302;2022-10-16T11:58:03;10.50;;;9.40;;
33162;SDS011;29282;45.656;11.302;2022-10-16T12:00:37;9.82;;;8.82;;
33162;SDS011;29282;45.656;11.302;2022-10-16T12:03:15;11.02;;;9.93;;
33162;SDS011;29282;45.656;11.302;2022-10-16T12:08:16;11.20;;;9.98;;
33162;SDS011;29282;45.656;11.302;2022-10-16T12:10:43;11.65;;;10.10;;
33162;SDS011;29282;45.656;11.302;2022-10-16T12:18:42;10.13;;;9.02;;
33162;SDS011;29282;45.656;11.302;2022-10-16T12:21:09;10.98;;;9.80;;
33162;SDS011;29282;45.656;11.302;2022-10-16T12:23:45;10.63;;;9.52;;
33162;SDS011;29282;45.656;11.302;2022-10-16T12:26:29;10.52;;;9.45;;
33162;SDS011;29282;45.656;11.302;2022-10-16T12:31:53;11.25;;;10.05;;
33162;SDS011;29282;45.656;11.302;2022-10-16T12:34:23;11.40;;;9.95;;
33162;SDS011;29282;45.656;11.302;2022-10-16T12:37:06;10.80;;;9.75;;
33162;SDS011;29282;45.656;11.302;2022-10-16T12:39:37;10.37;;;9.30;;
33162;SDS011;29282;45.656;11.302;2022-10-16T12:42:05;10.60;;;9.50;;
33162;SDS011;29282;45.656;11.302;2022-10-16T12:44:45;10.73;;;9.65;;
33162;SDS011;29282;45.656;11.302;2022-10-16T12:49:54;10.68;;;9.52;;
33162;SDS011;29282;45.656;11.302;2022-10-16T12:52:36;10.77;;;9.68;;
33162;SDS011;29282;45.656;11.302;2022-10-16T12:55:04;10.07;;;8.95;;
33162;SDS011;29282;45.656;11.302;2022-10-16T13:22:39;10.48;;;9.38;;
33162;SDS011;29282;45.656;11.302;2022-10-16T13:27:56;11.32;;;10.23;;
33162;SDS011;29282;45.656;11.302;2022-10-16T13:30:26;10.52;;;9.52;;
33162;SDS011;29282;45.656;11.302;2022-10-16T13:32:59;10.68;;;9.57;;
33162;SDS011;29282;45.656;11.302;2022-10-16T13:35:28;11.52;;;9.85;;
33162;SDS011;29282;45.656;11.302;2022-10-16T13:38:03;10.63;;;9.52;;
33162;SDS011;29282;45.656;11.302;2022-10-16T13:40:51;10.05;;;9.05;;
33162;SDS011;29282;45.656;11.302;2022-10-16T13:43:34;10.63;;;9.52;;
33162;SDS011;29282;45.656;11.302;2022-10-16T13:46:05;10.63;;;9.52;;
33162;SDS011;29282;45.656;11.302;2022-10-16T13:48:36;10.73;;;9.63;;
33162;SDS011;29282;45.656;11.302;2022-10-16T13:53:41;10.43;;;9.30;;
33162;SDS011;29282;45.656;11.302;2022-10-16T13:56:09;10.13;;;9.13;;
33162;SDS011;29282;45.656;11.302;2022-10-16T13:58:36;9.48;;;8.57;;
33162;SDS011;29282;45.656;11.302;2022-10-16T14:01:06;11.02;;;9.93;;
33162;SDS011;29282;45.656;11.302;2022-10-16T14:03:48;10.55;;;9.55;;
33162;SDS011;29282;45.656;11.302;2022-10-16T14:06:15;10.43;;;9.32;;
33162;SDS011;29282;45.656;11.302;2022-10-16T14:08:48;10.63;;;9.55;;
33162;SDS011;29282;45.656;11.302;2022-10-16T14:11:21;11.13;;;10.02;;
33162;SDS011;29282;45.656;11.302;2022-10-16T14:13:48;10.60;;;9.60;;
33162;SDS011;29282;45.656;11.302;2022-10-16T14:16:19;10.63;;;9.52;;
33162;SDS011;29282;45.656;11.302;2022-10-16T14:18:50;10.57;;;9.57;;
33162;SDS011;29282;45.656;11.302;2022-10-16T14:21:25;10.50;;;9.45;;
33162;SDS011;29282;45.656;11.302;2022-10-16T14:23:51;10.18;;;9.18;;
33162;SDS011;29282;45.656;11.302;2022-10-16T14:26:19;10.15;;;9.18;;
33162;SDS011;29282;45.656;11.302;2022-10-16T14:28:47;10.80;;;9.70;;
33162;SDS011;29282;45.656;11.302;2022-10-16T14:31:32;10.38;;;9.35;;
33162;SDS011;29282;45.656;11.302;2022-10-16T14:33:58;10.43;;;9.38;;
33162;SDS011;29282;45.656;11.302;2022-10-16T14:36:25;11.02;;;9.85;;
33162;SDS011;29282;45.656;11.302;2022-10-16T14:41:20;10.40;;;9.30;;
33162;SDS011;29282;45.656;11.302;2022-10-16T14:43:50;11.07;;;9.98;;
33162;SDS011;29282;45.656;11.302;2022-10-16T14:46:19;10.73;;;9.63;;
33162;SDS011;29282;45.656;11.302;2022-10-16T14:48:47;9.60;;;8.70;;
33162;SDS011;29282;45.656;11.302;2022-10-16T14:51:19;11.07;;;9.98;;
33162;SDS011;29282;45.656;11.302;2022-10-16T14:53:45;10.98;;;9.50;;
33162;SDS011;29282;45.656;11.302;2022-10-16T14:56:18;10.23;;;9.23;;
33162;SDS011;29282;45.656;11.302;2022-10-16T14:58:49;10.07;;;9.10;;
33162;SDS011;29282;45.656;11.302;2022-10-16T15:01:16;10.43;;;9.32;;
33162;SDS011;29282;45.656;11.302;2022-10-16T15:03:42;10.65;;;9.55;;
33162;SDS011;29282;45.656;11.302;2022-10-16T15:06:09;11.52;;;9.55;;
33162;SDS011;29282;45.656;11.302;2022-10-16T15:08:36;10.77;;;9.68;;
33162;SDS011;29282;45.656;11.302;2022-10-16T15:11:02;10.30;;;9.27;;
33162;SDS011;29282;45.656;11.302;2022-10-16T15:13:28;11.18;;;9.82;;
33162;SDS011;29282;45.656;11.302;2022-10-16T15:15:53;10.63;;;9.50;;
33162;SDS011;29282;45.656;11.302;2022-10-16T15:18:19;10.90;;;9.80;;
33162;SDS011;29282;45.656;11.302;2022-10-16T15:20:47;11.02;;;9.90;;
33162;SDS011;29282;45.656;11.302;2022-10-16T15:23:15;11.02;;;9.38;;
33162;SDS011;29282;45.656;11.302;2022-10-16T15:25:43;10.90;;;9.80;;
33162;SDS011;29282;45.656;11.302;2022-10-16T15:28:11;11.25;;;9.98;;
33162;SDS011;29282;45.656;11.302;2022-10-16T15:30:37;13.60;;;9.95;;
33162;SDS011;29282;45.656;11.302;2022-10-16T15:33:04;10.35;;;9.35;;
33162;SDS011;29282;45.656;11.302;2022-10-16T15:35:30;10.93;;;9.85;;
33162;SDS011;29282;45.656;11.302;2022-10-16T15:37:56;10.85;;;9.75;;
33162;SDS011;29282;45.656;11.302;2022-10-16T15:40:22;10.80;;;9.70;;
33162;SDS011;29282;45.656;11.302;2022-10-16T15:42:48;10.75;;;9.23;;
33162;SDS011;29282;45.656;11.302;2022-10-16T15:45:14;10.98;;;9.90;;
33162;SDS011;29282;45.656;11.302;2022-10-16T15:47:41;11.68;;;10.50;;
33162;SDS011;29282;45.656;11.302;2022-10-16T15:50:11;10.63;;;9.55;;
33162;SDS011;29282;45.656;11.302;2022-10-16T15:52:38;11.40;;;10.20;;
33162;SDS011;29282;45.656;11.302;2022-10-16T15:55:05;10.45;;;9.35;;
33162;SDS011;29282;45.656;11.302;2022-10-16T15:57:32;10.80;;;9.73;;
33162;SDS011;29282;45.656;11.302;2022-10-16T15:59:58;11.30;;;10.15;;
33162;SDS011;29282;45.656;11.302;2022-10-16T16:02:23;12.10;;;10.30;;
33162;SDS011;29282;45.656;11.302;2022-10-16T16:04:48;10.82;;;9.73;;
33162;SDS011;29282;45.656;11.302;2022-10-16T16:07:14;11.15;;;10.02;;
33162;SDS011;29282;45.656;11.302;2022-10-16T16:09:40;11.48;;;10.30;;
33162;SDS011;29282;45.656;11.302;2022-10-16T16:12:05;10.95;;;9.85;;
33162;SDS011;29282;45.656;11.302;2022-10-16T16:14:31;11.32;;;10.18;;
33162;SDS011;29282;45.656;11.302;2022-10-16T16:16:56;11.40;;;10.20;;
33162;SDS011;29282;45.656;11.302;2022-10-16T16:19:24;11.85;;;10.63;;
33162;SDS011;29282;45.656;11.302;2022-10-16T16:21:49;11.77;;;10.55;;
33162;SDS011;29282;45.656;11.302;2022-10-16T16:24:15;10.60;;;9.60;;
33162;SDS011;29282;45.656;11.302;2022-10-16T16:26:41;11.68;;;10.48;;
33162;SDS011;29282;45.656;11.302;2022-10-16T16:29:14;11.95;;;10.52;;
33162;SDS011;29282;45.656;11.302;2022-10-16T16:31:41;11.68;;;10.45;;
33162;SDS011;29282;45.656;11.302;2022-10-16T16:34:07;12.32;;;10.85;;
33162;SDS011;29282;45.656;11.302;2022-10-16T16:36:34;13.57;;;10.20;;
33162;SDS011;29282;45.656;11.302;2022-10-16T16:39:01;11.48;;;10.25;;
33162;SDS011;29282;45.656;11.302;2022-10-16T16:41:28;12.10;;;10.90;;
33162;SDS011;29282;45.656;11.302;2022-10-16T16:43:55;11.55;;;10.10;;
33162;SDS011;29282;45.656;11.302;2022-10-16T16:46:26;11.85;;;10.55;;
33162;SDS011;29282;45.656;11.302;2022-10-16T16:48:51;12.85;;;10.18;;
33162;SDS011;29282;45.656;11.302;2022-10-16T16:51:20;12.05;;;10.85;;
33162;SDS011;29282;45.656;11.302;2022-10-16T16:53:48;13.10;;;10.85;;
33162;SDS011;29282;45.656;11.302;2022-10-16T16:56:15;11.30;;;10.15;;
33162;SDS011;29282;45.656;11.302;2022-10-16T16:58:41;12.43;;;10.85;;
33162;SDS011;29282;45.656;11.302;2022-10-16T17:01:13;12.75;;;11.18;;